Time,TemperatureF,DewpointF,PressureIn,WindDirection,WindDirectionDegrees,WindSpeedMPH,WindSpeedGustMPH,Humidity,HourlyPrecipIn,Conditions,Clouds,dailyrainin,SoftwareType,DateUTC
2013-01-17 00:02:00,8.0,5.0,-100.00,North,-999,-999.0,-999.0,89,-99.99,,,-99.99,,2013-01-17 07:02:00,
2013-01-17 00:12:00,8.0,5.0,-100.00,North,-999,-999.0,-999.0,89,-99.99,,,-99.99,,2013-01-17 07:12:00,
2013-01-17 00:22:00,8.0,5.0,-100.00,North,-999,-999.0,-999.0,88,-99.99,,,-99.99,,2013-01-17 07:22:00,
2013-01-17 00:32:00,8.0,5.0,-100.00,North,-999,-999.0,-999.0,89,-99.99,,,-99.99,,2013-01-17 07:32:00,
2013-01-17 00:42:00,8.0,5.0,-100.00,North,-999,-999.0,-999.0,89,-99.99,,,-99.99,,2013-01-17 07:42:00,
2013-01-17 00:52:00,9.0,7.0,-100.00,North,-999,-999.0,-999.0,90,-99.99,,,-99.99,,2013-01-17 07:52:00,
2013-01-17 01:02:00,11.0,8.0,-100.00,North,-999,-999.0,-999.0,88,-99.99,,,-99.99,,2013-01-17 08:02:00,
2013-01-17 01:11:00,11.0,8.0,-100.00,North,-999,-999.0,-999.0,88,-99.99,,,-99.99,,2013-01-17 08:11:00,
2013-01-17 01:22:00,11.0,8.0,-100.00,North,-999,-999.0,-999.0,88,-99.99,,,-99.99,,2013-01-17 08:22:00,
2013-01-17 01:32:00,12.0,9.0,-100.00,North,-999,-999.0,-999.0,88,-99.99,,,-99.99,,2013-01-17 08:32:00,
2013-01-17 01:43:00,12.0,9.0,-100.00,North,-999,-999.0,-999.0,88,-99.99,,,-99.99,,2013-01-17 08:43:00,
2013-01-17 01:53:00,11.0,8.0,-100.00,North,-999,-999.0,-999.0,87,-99.99,,,-99.99,,2013-01-17 08:53:00,
2013-01-17 02:02:00,12.0,9.0,-100.00,North,-999,-999.0,-999.0,88,-99.99,,,-99.99,,2013-01-17 09:02:00,
2013-01-17 02:12:00,12.0,9.0,-100.00,North,-999,-999.0,-999.0,88,-99.99,,,-99.99,,2013-01-17 09:12:00,
2013-01-17 02:22:00,13.0,10.0,-100.00,North,-999,-999.0,-999.0,86,-99.99,,,-99.99,,2013-01-17 09:22:00,
2013-01-17 02:32:00,13.0,10.0,-100.00,North,-999,-999.0,-999.0,86,-99.99,,,-99.99,,2013-01-17 09:32:00,
2013-01-17 02:42:00,13.0,10.0,-100.00,North,-999,-999.0,-999.0,86,-99.99,,,-99.99,,2013-01-17 09:42:00,
2013-01-17 02:52:00,14.0,11.0,-100.00,North,-999,-999.0,-999.0,86,-99.99,,,-99.99,,2013-01-17 09:52:00,
2013-01-17 03:02:00,12.0,8.0,-100.00,North,-999,-999.0,-999.0,82,-99.99,,,-99.99,,2013-01-17 10:02:00,
2013-01-17 03:12:00,12.0,8.0,-100.00,North,-999,-999.0,-999.0,82,-99.99,,,-99.99,,2013-01-17 10:12:00,
2013-01-17 03:22:00,8.0,5.0,-100.00,North,-999,-999.0,-999.0,87,-99.99,,,-99.99,,2013-01-17 10:22:00,
2013-01-17 03:32:00,10.0,8.0,-100.00,North,-999,-999.0,-999.0,90,-99.99,,,-99.99,,2013-01-17 10:32:00,
2013-01-17 03:42:00,10.0,8.0,-100.00,North,-999,-999.0,-999.0,90,-99.99,,,-99.99,,2013-01-17 10:42:00,
2013-01-17 03:53:00,10.0,7.0,-100.00,North,-999,-999.0,-999.0,88,-99.99,,,-99.99,,2013-01-17 10:53:00,
2013-01-17 04:02:00,11.0,8.0,-100.00,North,-999,-999.0,-999.0,89,-99.99,,,-99.99,,2013-01-17 11:02:00,
2013-01-17 04:12:00,11.0,8.0,-100.00,North,-999,-999.0,-999.0,89,-99.99,,,-99.99,,2013-01-17 11:12:00,
2013-01-17 04:22:00,12.0,9.0,-100.00,North,-999,-999.0,-999.0,86,-99.99,,,-99.99,,2013-01-17 11:22:00,
2013-01-17 04:32:00,11.0,8.0,-100.00,North,-999,-999.0,-999.0,86,-99.99,,,-99.99,,2013-01-17 11:32:00,
2013-01-17 04:42:00,11.0,8.0,-100.00,North,-999,-999.0,-999.0,86,-99.99,,,-99.99,,2013-01-17 11:42:00,
2013-01-17 04:53:00,12.0,9.0,-100.00,North,-999,-999.0,-999.0,87,-99.99,,,-99.99,,2013-01-17 11:53:00,
2013-01-17 05:02:00,13.0,9.0,-100.00,North,-999,-999.0,-999.0,85,-99.99,,,-99.99,,2013-01-17 12:02:00,
2013-01-17 05:12:00,13.0,9.0,-100.00,North,-999,-999.0,-999.0,85,-99.99,,,-99.99,,2013-01-17 12:12:00,
2013-01-17 05:22:00,12.0,8.0,-100.00,North,-999,-999.0,-999.0,85,-99.99,,,-99.99,,2013-01-17 12:22:00,
2013-01-17 05:32:00,10.0,7.0,-100.00,North,-999,-999.0,-999.0,87,-99.99,,,-99.99,,2013-01-17 12:32:00,
2013-01-17 05:42:00,10.0,7.0,-100.00,North,-999,-999.0,-999.0,87,-99.99,,,-99.99,,2013-01-17 12:42:00,
2013-01-17 05:53:00,10.0,7.0,-100.00,North,-999,-999.0,-999.0,88,-99.99,,,-99.99,,2013-01-17 12:53:00,
2013-01-17 06:02:00,9.0,6.0,-100.00,North,-999,-999.0,-999.0,88,-99.99,,,-99.99,,2013-01-17 13:02:00,
2013-01-17 06:12:00,9.0,6.0,-100.00,North,-999,-999.0,-999.0,88,-99.99,,,-99.99,,2013-01-17 13:12:00,
2013-01-17 06:22:00,9.0,6.0,-100.00,North,-999,-999.0,-999.0,88,-99.99,,,-99.99,,2013-01-17 13:22:00,
2013-01-17 06:33:00,9.0,7.0,-100.00,North,-999,-999.0,-999.0,90,-99.99,,,-99.99,,2013-01-17 13:33:00,
2013-01-17 06:42:00,9.0,7.0,-100.00,North,-999,-999.0,-999.0,90,-99.99,,,-99.99,,2013-01-17 13:42:00,
2013-01-17 06:53:00,10.0,7.0,-100.00,North,-999,-999.0,-999.0,89,-99.99,,,-99.99,,2013-01-17 13:53:00,
2013-01-17 07:03:00,10.0,7.0,-100.00,North,-999,-999.0,-999.0,88,-99.99,,,-99.99,,2013-01-17 14:03:00,
2013-01-17 07:12:00,10.0,7.0,-100.00,North,-999,-999.0,-999.0,88,-99.99,,,-99.99,,2013-01-17 14:12:00,
2013-01-17 07:23:00,11.0,8.0,-100.00,North,-999,-999.0,-999.0,87,-99.99,,,-99.99,,2013-01-17 14:23:00,
2013-01-17 07:32:00,11.0,8.0,-100.00,North,-999,-999.0,-999.0,86,-99.99,,,-99.99,,2013-01-17 14:32:00,
2013-01-17 07:42:00,11.0,8.0,-100.00,North,-999,-999.0,-999.0,86,-99.99,,,-99.99,,2013-01-17 14:42:00,
2013-01-17 07:53:00,11.0,8.0,-100.00,North,-999,-999.0,-999.0,86,-99.99,,,-99.99,,2013-01-17 14:53:00,
2013-01-17 08:03:00,11.0,8.0,-100.00,North,-999,-999.0,-999.0,86,-99.99,,,-99.99,,2013-01-17 15:03:00,
2013-01-17 08:12:00,11.0,8.0,-100.00,North,-999,-999.0,-999.0,86,-99.99,,,-99.99,,2013-01-17 15:12:00,
2013-01-17 08:22:00,11.0,8.0,-100.00,North,-999,-999.0,-999.0,86,-99.99,,,-99.99,,2013-01-17 15:22:00,
2013-01-17 08:33:00,12.0,8.0,-100.00,North,-999,-999.0,-999.0,85,-99.99,,,-99.99,,2013-01-17 15:33:00,
2013-01-17 08:43:00,12.0,8.0,-100.00,North,-999,-999.0,-999.0,85,-99.99,,,-99.99,,2013-01-17 15:43:00,
2013-01-17 08:53:00,12.0,8.0,-100.00,North,-999,-999.0,-999.0,84,-99.99,,,-99.99,,2013-01-17 15:53:00,
2013-01-17 09:02:00,14.0,10.0,-100.00,North,-999,-999.0,-999.0,83,-99.99,,,-99.99,,2013-01-17 16:02:00,
2013-01-17 09:12:00,14.0,10.0,-100.00,North,-999,-999.0,-999.0,83,-99.99,,,-99.99,,2013-01-17 16:12:00,
2013-01-17 09:22:00,15.0,10.0,-100.00,North,-999,-999.0,-999.0,81,-99.99,,,-99.99,,2013-01-17 16:22:00,
2013-01-17 09:33:00,15.0,11.0,-100.00,North,-999,-999.0,-999.0,82,-99.99,,,-99.99,,2013-01-17 16:33:00,
2013-01-17 09:43:00,15.0,11.0,-100.00,North,-999,-999.0,-999.0,82,-99.99,,,-99.99,,2013-01-17 16:43:00,
2013-01-17 09:53:00,16.0,11.0,-100.00,North,-999,-999.0,-999.0,79,-99.99,,,-99.99,,2013-01-17 16:53:00,
2013-01-17 10:02:00,17.0,11.0,-100.00,North,-999,-999.0,-999.0,76,-99.99,,,-99.99,,2013-01-17 17:02:00,
2013-01-17 10:12:00,17.0,11.0,-100.00,North,-999,-999.0,-999.0,76,-99.99,,,-99.99,,2013-01-17 17:12:00,
2013-01-17 10:22:00,16.0,10.0,-100.00,North,-999,-999.0,-999.0,78,-99.99,,,-99.99,,2013-01-17 17:22:00,
2013-01-17 10:33:00,17.0,11.0,-100.00,North,-999,-999.0,-999.0,77,-99.99,,,-99.99,,2013-01-17 17:33:00,
2013-01-17 10:43:00,17.0,11.0,-100.00,North,-999,-999.0,-999.0,77,-99.99,,,-99.99,,2013-01-17 17:43:00,
2013-01-17 10:53:00,17.0,10.0,-100.00,North,-999,-999.0,-999.0,75,-99.99,,,-99.99,,2013-01-17 17:53:00,
2013-01-17 11:03:00,18.0,11.0,-100.00,North,-999,-999.0,-999.0,75,-99.99,,,-99.99,,2013-01-17 18:03:00,
2013-01-17 11:12:00,18.0,11.0,-100.00,North,-999,-999.0,-999.0,75,-99.99,,,-99.99,,2013-01-17 18:12:00,
2013-01-17 11:22:00,19.0,12.0,-100.00,North,-999,-999.0,-999.0,75,-99.99,,,-99.99,,2013-01-17 18:22:00,
2013-01-17 11:33:00,20.0,13.0,-100.00,North,-999,-999.0,-999.0,74,-99.99,,,-99.99,,2013-01-17 18:33:00,
2013-01-17 11:43:00,20.0,13.0,-100.00,North,-999,-999.0,-999.0,74,-99.99,,,-99.99,,2013-01-17 18:43:00,
2013-01-17 11:53:00,21.0,13.0,-100.00,North,-999,-999.0,-999.0,70,-99.99,,,-99.99,,2013-01-17 18:53:00,
2013-01-17 12:02:00,22.0,12.0,-100.00,North,-999,-999.0,-999.0,65,-99.99,,,-99.99,,2013-01-17 19:02:00,
2013-01-17 12:12:00,22.0,12.0,-100.00,North,-999,-999.0,-999.0,65,-99.99,,,-99.99,,2013-01-17 19:12:00,
2013-01-17 12:22:00,22.0,12.0,-100.00,North,-999,-999.0,-999.0,65,-99.99,,,-99.99,,2013-01-17 19:22:00,
2013-01-17 12:32:00,22.0,12.0,-100.00,North,-999,-999.0,-999.0,64,-99.99,,,-99.99,,2013-01-17 19:32:00,
2013-01-17 12:42:00,22.0,12.0,-100.00,North,-999,-999.0,-999.0,64,-99.99,,,-99.99,,2013-01-17 19:42:00,
2013-01-17 12:53:00,22.0,12.0,-100.00,North,-999,-999.0,-999.0,65,-99.99,,,-99.99,,2013-01-17 19:53:00,
2013-01-17 13:02:00,23.0,14.0,-100.00,North,-999,-999.0,-999.0,67,-99.99,,,-99.99,,2013-01-17 20:02:00,
2013-01-17 13:12:00,23.0,14.0,-100.00,North,-999,-999.0,-999.0,67,-99.99,,,-99.99,,2013-01-17 20:12:00,
2013-01-17 13:22:00,23.0,14.0,-100.00,North,-999,-999.0,-999.0,68,-99.99,,,-99.99,,2013-01-17 20:22:00,
2013-01-17 13:33:00,23.0,14.0,-100.00,North,-999,-999.0,-999.0,68,-99.99,,,-99.99,,2013-01-17 20:33:00,
2013-01-17 13:43:00,23.0,14.0,-100.00,North,-999,-999.0,-999.0,68,-99.99,,,-99.99,,2013-01-17 20:43:00,
2013-01-17 13:53:00,30.0,17.0,-100.00,North,-999,-999.0,-999.0,57,-99.99,,,-99.99,,2013-01-17 20:53:00,
2013-01-17 14:02:00,32.0,15.0,-100.00,North,-999,-999.0,-999.0,50,-99.99,,,-99.99,,2013-01-17 21:02:00,
2013-01-17 14:12:00,32.0,15.0,-100.00,North,-999,-999.0,-999.0,50,-99.99,,,-99.99,,2013-01-17 21:12:00,
2013-01-17 14:23:00,31.0,16.0,-100.00,North,-999,-999.0,-999.0,53,-99.99,,,-99.99,,2013-01-17 21:23:00,
2013-01-17 14:33:00,30.0,17.0,-100.00,North,-999,-999.0,-999.0,57,-99.99,,,-99.99,,2013-01-17 21:33:00,
2013-01-17 14:42:00,30.0,17.0,-100.00,North,-999,-999.0,-999.0,57,-99.99,,,-99.99,,2013-01-17 21:42:00,
2013-01-17 14:53:00,26.0,15.0,-100.00,North,-999,-999.0,-999.0,63,-99.99,,,-99.99,,2013-01-17 21:53:00,
2013-01-17 15:03:00,26.0,15.0,-100.00,North,-999,-999.0,-999.0,62,-99.99,,,-99.99,,2013-01-17 22:03:00,
2013-01-17 15:12:00,26.0,15.0,-100.00,North,-999,-999.0,-999.0,62,-99.99,,,-99.99,,2013-01-17 22:12:00,
2013-01-17 15:22:00,28.0,13.0,-100.00,North,-999,-999.0,-999.0,52,-99.99,,,-99.99,,2013-01-17 22:22:00,
2013-01-17 15:32:00,29.0,12.0,-100.00,North,-999,-999.0,-999.0,48,-99.99,,,-99.99,,2013-01-17 22:32:00,
2013-01-17 15:42:00,29.0,12.0,-100.00,North,-999,-999.0,-999.0,48,-99.99,,,-99.99,,2013-01-17 22:42:00,
2013-01-17 15:52:00,28.0,10.0,-100.00,North,-999,-999.0,-999.0,47,-99.99,,,-99.99,,2013-01-17 22:52:00,
2013-01-17 16:02:00,28.0,10.0,-100.00,North,-999,-999.0,-999.0,47,-99.99,,,-99.99,,2013-01-17 23:02:00,
2013-01-17 16:12:00,28.0,10.0,-100.00,North,-999,-999.0,-999.0,47,-99.99,,,-99.99,,2013-01-17 23:12:00,
2013-01-17 16:22:00,28.0,9.0,-100.00,North,-999,-999.0,-999.0,45,-99.99,,,-99.99,,2013-01-17 23:22:00,
2013-01-17 16:32:00,28.0,9.0,-100.00,North,-999,-999.0,-999.0,45,-99.99,,,-99.99,,2013-01-17 23:32:00,
2013-01-17 16:42:00,28.0,9.0,-100.00,North,-999,-999.0,-999.0,45,-99.99,,,-99.99,,2013-01-17 23:42:00,
2013-01-17 16:53:00,25.0,9.0,-100.00,North,-999,-999.0,-999.0,51,-99.99,,,-99.99,,2013-01-17 23:53:00,
2013-01-17 17:02:00,24.0,9.0,-100.00,North,-999,-999.0,-999.0,53,-99.99,,,-99.99,,2013-01-18 00:02:00,
2013-01-17 17:12:00,24.0,9.0,-100.00,North,-999,-999.0,-999.0,53,-99.99,,,-99.99,,2013-01-18 00:12:00,
2013-01-17 17:23:00,23.0,9.0,-100.00,North,-999,-999.0,-999.0,54,-99.99,,,-99.99,,2013-01-18 00:23:00,
2013-01-17 17:32:00,23.0,9.0,-100.00,North,-999,-999.0,-999.0,54,-99.99,,,-99.99,,2013-01-18 00:32:00,
2013-01-17 17:42:00,23.0,9.0,-100.00,North,-999,-999.0,-999.0,54,-99.99,,,-99.99,,2013-01-18 00:42:00,
2013-01-17 17:53:00,21.0,8.0,-100.00,North,-999,-999.0,-999.0,57,-99.99,,,-99.99,,2013-01-18 00:53:00,
2013-01-17 18:02:00,21.0,8.0,-100.00,North,-999,-999.0,-999.0,57,-99.99,,,-99.99,,2013-01-18 01:02:00,
2013-01-17 18:12:00,21.0,8.0,-100.00,North,-999,-999.0,-999.0,57,-99.99,,,-99.99,,2013-01-18 01:12:00,
2013-01-17 18:22:00,21.0,7.0,-100.00,North,-999,-999.0,-999.0,55,-99.99,,,-99.99,,2013-01-18 01:22:00,
2013-01-17 18:32:00,21.0,7.0,-100.00,North,-999,-999.0,-999.0,53,-99.99,,,-99.99,,2013-01-18 01:32:00,
2013-01-17 18:42:00,21.0,7.0,-100.00,North,-999,-999.0,-999.0,53,-99.99,,,-99.99,,2013-01-18 01:42:00,
2013-01-17 18:53:00,21.0,7.0,-100.00,North,-999,-999.0,-999.0,53,-99.99,,,-99.99,,2013-01-18 01:53:00,
2013-01-17 19:02:00,20.0,7.0,-100.00,North,-999,-999.0,-999.0,56,-99.99,,,-99.99,,2013-01-18 02:02:00,
2013-01-17 19:12:00,20.0,7.0,-100.00,North,-999,-999.0,-999.0,56,-99.99,,,-99.99,,2013-01-18 02:12:00,
2013-01-17 19:22:00,21.0,7.0,-100.00,North,-999,-999.0,-999.0,54,-99.99,,,-99.99,,2013-01-18 02:22:00,
2013-01-17 19:32:00,20.0,6.0,-100.00,North,-999,-999.0,-999.0,55,-99.99,,,-99.99,,2013-01-18 02:32:00,
2013-01-17 19:42:00,20.0,6.0,-100.00,North,-999,-999.0,-999.0,55,-99.99,,,-99.99,,2013-01-18 02:42:00,
2013-01-17 19:53:00,21.0,7.0,-100.00,North,-999,-999.0,-999.0,53,-99.99,,,-99.99,,2013-01-18 02:53:00,
2013-01-17 20:02:00,21.0,7.0,-100.00,North,-999,-999.0,-999.0,53,-99.99,,,-99.99,,2013-01-18 03:02:00,
2013-01-17 20:12:00,21.0,7.0,-100.00,North,-999,-999.0,-999.0,53,-99.99,,,-99.99,,2013-01-18 03:12:00,
2013-01-17 20:22:00,20.0,7.0,-100.00,North,-999,-999.0,-999.0,56,-99.99,,,-99.99,,2013-01-18 03:22:00,
2013-01-17 20:33:00,20.0,7.0,-100.00,North,-999,-999.0,-999.0,57,-99.99,,,-99.99,,2013-01-18 03:33:00,
2013-01-17 20:42:00,20.0,7.0,-100.00,North,-999,-999.0,-999.0,57,-99.99,,,-99.99,,2013-01-18 03:42:00,
2013-01-17 20:52:00,20.0,7.0,-100.00,North,-999,-999.0,-999.0,57,-99.99,,,-99.99,,2013-01-18 03:52:00,
2013-01-17 21:02:00,20.0,8.0,-100.00,North,-999,-999.0,-999.0,58,-99.99,,,-99.99,,2013-01-18 04:02:00,
2013-01-17 21:12:00,20.0,8.0,-100.00,North,-999,-999.0,-999.0,58,-99.99,,,-99.99,,2013-01-18 04:12:00,
2013-01-17 21:22:00,20.0,7.0,-100.00,North,-999,-999.0,-999.0,57,-99.99,,,-99.99,,2013-01-18 04:22:00,
2013-01-17 21:32:00,19.0,7.0,-100.00,North,-999,-999.0,-999.0,58,-99.99,,,-99.99,,2013-01-18 04:32:00,
2013-01-17 21:42:00,19.0,7.0,-100.00,North,-999,-999.0,-999.0,58,-99.99,,,-99.99,,2013-01-18 04:42:00,
2013-01-17 21:53:00,20.0,8.0,-100.00,North,-999,-999.0,-999.0,59,-99.99,,,-99.99,,2013-01-18 04:53:00,
2013-01-17 22:03:00,19.0,8.0,-100.00,North,-999,-999.0,-999.0,61,-99.99,,,-99.99,,2013-01-18 05:03:00,
2013-01-17 22:12:00,19.0,8.0,-100.00,North,-999,-999.0,-999.0,61,-99.99,,,-99.99,,2013-01-18 05:12:00,
2013-01-17 22:22:00,18.0,8.0,-100.00,North,-999,-999.0,-999.0,64,-99.99,,,-99.99,,2013-01-18 05:22:00,
2013-01-17 22:32:00,19.0,9.0,-100.00,North,-999,-999.0,-999.0,63,-99.99,,,-99.99,,2013-01-18 05:32:00,
2013-01-17 22:42:00,19.0,9.0,-100.00,North,-999,-999.0,-999.0,63,-99.99,,,-99.99,,2013-01-18 05:42:00,
2013-01-17 22:53:00,18.0,8.0,-100.00,North,-999,-999.0,-999.0,64,-99.99,,,-99.99,,2013-01-18 05:53:00,
2013-01-17 23:02:00,18.0,9.0,-100.00,North,-999,-999.0,-999.0,67,-99.99,,,-99.99,,2013-01-18 06:02:00,
2013-01-17 23:12:00,18.0,9.0,-100.00,North,-999,-999.0,-999.0,67,-99.99,,,-99.99,,2013-01-18 06:12:00,
2013-01-17 23:22:00,18.0,9.0,-100.00,North,-999,-999.0,-999.0,67,-99.99,,,-99.99,,2013-01-18 06:22:00,
2013-01-17 23:32:00,18.0,8.0,-100.00,North,-999,-999.0,-999.0,64,-99.99,,,-99.99,,2013-01-18 06:32:00,
2013-01-17 23:43:00,18.0,8.0,-100.00,North,-999,-999.0,-999.0,64,-99.99,,,-99.99,,2013-01-18 06:43:00,
2013-01-17 23:52:00,18.0,8.0,-100.00,North,-999,-999.0,-999.0,64,-99.99,,,-99.99,,2013-01-18 06:52:00,